sensor_id;sensor_type;location;lat;lon;timestamp;P1;durP1;ratioP1;P2;durP2;ratioP2
15126;SDS011;7664;52.008;4.748;2022-12-20T00:01:38;4.05;;;3.00;;
15126;SDS011;7664;52.008;4.748;2022-12-20T00:04:08;5.82;;;3.22;;
15126;SDS011;7664;52.008;4.748;2022-12-20T00:06:37;6.35;;;3.05;;
15126;SDS011;7664;52.008;4.748;2022-12-20T00:09:06;4.78;;;2.85;;
15126;SDS011;7664;52.008;4.748;2022-12-20T00:11:37;6.70;;;3.33;;
15126;SDS011;7664;52.008;4.748;2022-12-20T00:14:06;4.88;;;3.22;;
15126;SDS011;7664;52.008;4.748;2022-12-20T00:16:35;4.20;;;3.10;;
15126;SDS011;7664;52.008;4.748;2022-12-20T00:19:04;5.53;;;3.28;;
15126;SDS011;7664;52.008;4.748;2022-12-20T00:21:33;5.35;;;3.25;;
15126;SDS011;7664;52.008;4.748;2022-12-20T00:24:04;5.30;;;3.60;;
15126;SDS011;7664;52.008;4.748;2022-12-20T00:26:33;4.65;;;2.97;;
15126;SDS011;7664;52.008;4.748;2022-12-20T00:29:01;4.00;;;2.95;;
15126;SDS011;7664;52.008;4.748;2022-12-20T00:31:30;3.63;;;2.85;;
15126;SDS011;7664;52.008;4.748;2022-12-20T00:33:59;5.07;;;2.75;;
15126;SDS011;7664;52.008;4.748;2022-12-20T00:36:29;5.13;;;2.95;;
15126;SDS011;7664;52.008;4.748;2022-12-20T00:38:58;5.28;;;3.03;;
15126;SDS011;7664;52.008;4.748;2022-12-20T00:41:29;4.35;;;3.40;;
15126;SDS011;7664;52.008;4.748;2022-12-20T00:43:57;4.28;;;2.55;;
15126;SDS011;7664;52.008;4.748;2022-12-20T00:46:26;5.40;;;3.20;;
15126;SDS011;7664;52.008;4.748;2022-12-20T00:48:54;4.45;;;2.72;;
15126;SDS011;7664;52.008;4.748;2022-12-20T00:51:24;5.82;;;2.85;;
15126;SDS011;7664;52.008;4.748;2022-12-20T00:53:53;3.28;;;2.58;;
15126;SDS011;7664;52.008;4.748;2022-12-20T00:56:21;5.13;;;2.95;;
15126;SDS011;7664;52.008;4.748;2022-12-20T00:58:56;4.68;;;2.70;;
15126;SDS011;7664;52.008;4.748;2022-12-20T01:01:25;3.95;;;2.50;;
15126;SDS011;7664;52.008;4.748;2022-12-20T01:03:55;6.80;;;3.25;;
15126;SDS011;7664;52.008;4.748;2022-12-20T01:06:24;5.25;;;3.22;;
15126;SDS011;7664;52.008;4.748;2022-12-20T01:08:52;4.05;;;2.95;;
15126;SDS011;7664;52.008;4.748;2022-12-20T01:11:22;3.70;;;2.65;;
15126;SDS011;7664;52.008;4.748;2022-12-20T01:13:51;4.78;;;3.20;;
15126;SDS011;7664;52.008;4.748;2022-12-20T01:16:21;5.03;;;3.10;;
15126;SDS011;7664;52.008;4.748;2022-12-20T01:18:50;4.00;;;2.75;;
15126;SDS011;7664;52.008;4.748;2022-12-20T01:21:20;5.97;;;3.05;;
15126;SDS011;7664;52.008;4.748;2022-12-20T01:23:49;5.10;;;2.97;;
15126;SDS011;7664;52.008;4.748;2022-12-20T01:26:18;3.67;;;2.83;;
15126;SDS011;7664;52.008;4.748;2022-12-20T01:28:50;4.05;;;2.60;;
15126;SDS011;7664;52.008;4.748;2022-12-20T01:31:19;5.82;;;2.88;;
15126;SDS011;7664;52.008;4.748;2022-12-20T01:33:50;5.20;;;3.00;;
15126;SDS011;7664;52.008;4.748;2022-12-20T01:36:19;6.50;;;3.25;;
15126;SDS011;7664;52.008;4.748;2022-12-20T01:38:54;4.47;;;2.72;;
15126;SDS011;7664;52.008;4.748;2022-12-20T01:41:22;12.15;;;3.33;;
15126;SDS011;7664;52.008;4.748;2022-12-20T01:43:52;4.18;;;3.13;;
15126;SDS011;7664;52.008;4.748;2022-12-20T01:46:21;5.03;;;3.13;;
15126;SDS011;7664;52.008;4.748;2022-12-20T01:48:53;6.10;;;3.25;;
15126;SDS011;7664;52.008;4.748;2022-12-20T01:51:22;4.30;;;2.63;;
15126;SDS011;7664;52.008;4.748;2022-12-20T01:53:53;4.82;;;3.25;;
15126;SDS011;7664;52.008;4.748;2022-12-20T01:56:24;4.60;;;2.88;;
15126;SDS011;7664;52.008;4.748;2022-12-20T01:58:52;5.75;;;2.95;;
15126;SDS011;7664;52.008;4.748;2022-12-20T02:01:21;4.70;;;2.58;;
15126;SDS011;7664;52.008;4.748;2022-12-20T02:03:54;3.63;;;2.60;;
15126;SDS011;7664;52.008;4.748;2022-12-20T02:06:24;5.50;;;2.42;;
15126;SDS011;7664;52.008;4.748;2022-12-20T02:08:54;7.60;;;2.80;;
15126;SDS011;7664;52.008;4.748;2022-12-20T02:11:27;2.83;;;2.33;;
15126;SDS011;7664;52.008;4.748;2022-12-20T02:14:03;4.35;;;3.03;;
15126;SDS011;7664;52.008;4.748;2022-12-20T02:16:37;4.82;;;2.63;;
15126;SDS011;7664;52.008;4.748;2022-12-20T02:19:09;5.55;;;2.88;;
15126;SDS011;7664;52.008;4.748;2022-12-20T02:21:43;3.60;;;2.72;;
15126;SDS011;7664;52.008;4.748;2022-12-20T02:24:26;3.70;;;2.83;;
15126;SDS011;7664;52.008;4.748;2022-12-20T02:27:06;4.22;;;2.83;;
15126;SDS011;7664;52.008;4.748;2022-12-20T02:32:19;3.78;;;2.10;;
15126;SDS011;7664;52.008;4.748;2022-12-20T02:34:49;3.90;;;2.33;;
15126;SDS011;7664;52.008;4.748;2022-12-20T02:37:18;4.35;;;2.50;;
15126;SDS011;7664;52.008;4.748;2022-12-20T02:39:47;5.82;;;2.33;;
15126;SDS011;7664;52.008;4.748;2022-12-20T02:42:16;5.85;;;2.70;;
15126;SDS011;7664;52.008;4.748;2022-12-20T02:44:48;4.47;;;2.70;;
15126;SDS011;7664;52.008;4.748;2022-12-20T02:47:37;3.25;;;2.15;;
15126;SDS011;7664;52.008;4.748;2022-12-20T02:50:07;3.22;;;2.88;;
15126;SDS011;7664;52.008;4.748;2022-12-20T02:52:36;5.18;;;2.83;;
15126;SDS011;7664;52.008;4.748;2022-12-20T02:55:08;6.22;;;3.13;;
15126;SDS011;7664;52.008;4.748;2022-12-20T02:57:39;5.97;;;2.90;;
15126;SDS011;7664;52.008;4.748;2022-12-20T03:00:11;6.15;;;3.05;;
15126;SDS011;7664;52.008;4.748;2022-12-20T03:02:43;3.83;;;3.30;;
15126;SDS011;7664;52.008;4.748;2022-12-20T03:05:30;5.65;;;3.42;;
15126;SDS011;7664;52.008;4.748;2022-12-20T03:08:00;4.47;;;2.90;;
15126;SDS011;7664;52.008;4.748;2022-12-20T03:10:28;5.05;;;3.03;;
15126;SDS011;7664;52.008;4.748;2022-12-20T03:12:57;3.47;;;2.85;;
15126;SDS011;7664;52.008;4.748;2022-12-20T03:15:27;3.00;;;2.55;;
15126;SDS011;7664;52.008;4.748;2022-12-20T03:18:00;5.25;;;2.78;;
15126;SDS011;7664;52.008;4.748;2022-12-20T03:20:29;5.03;;;3.17;;
15126;SDS011;7664;52.008;4.748;2022-12-20T03:22:57;3.40;;;2.90;;
15126;SDS011;7664;52.008;4.748;2022-12-20T03:25:25;5.15;;;2.85;;
15126;SDS011;7664;52.008;4.748;2022-12-20T03:27:55;5.55;;;2.78;;
15126;SDS011;7664;52.008;4.748;2022-12-20T03:30:25;3.83;;;3.00;;
15126;SDS011;7664;52.008;4.748;2022-12-20T03:32:53;3.22;;;2.17;;
15126;SDS011;7664;52.008;4.748;2022-12-20T03:35:23;5.35;;;2.67;;
15126;SDS011;7664;52.008;4.748;2022-12-20T03:37:52;3.03;;;2.53;;
15126;SDS011;7664;52.008;4.748;2022-12-20T03:40:21;3.08;;;2.20;;
15126;SDS011;7664;52.008;4.748;2022-12-20T03:42:50;3.50;;;2.63;;
15126;SDS011;7664;52.008;4.748;2022-12-20T03:45:19;4.60;;;2.88;;
15126;SDS011;7664;52.008;4.748;2022-12-20T03:47:49;4.10;;;2.65;;
15126;SDS011;7664;52.008;4.748;2022-12-20T03:50:18;3.47;;;2.67;;
15126;SDS011;7664;52.008;4.748;2022-12-20T03:52:48;3.63;;;2.47;;
15126;SDS011;7664;52.008;4.748;2022-12-20T03:55:16;5.88;;;2.22;;
15126;SDS011;7664;52.008;4.748;2022-12-20T03:57:45;7.10;;;2.33;;
15126;SDS011;7664;52.008;4.748;2022-12-20T04:00:23;3.88;;;2.40;;
15126;SDS011;7664;52.008;4.748;2022-12-20T04:02:59;3.47;;;2.13;;
15126;SDS011;7664;52.008;4.748;2022-12-20T04:05:28;5.07;;;2.53;;
15126;SDS011;7664;52.008;4.748;2022-12-20T04:07:58;3.03;;;2.38;;
15126;SDS011;7664;52.008;4.748;2022-12-20T04:10:26;2.78;;;2.28;;
15126;SDS011;7664;52.008;4.748;2022-12-20T04:12:55;4.50;;;2.30;;
15126;SDS011;7664;52.008;4.748;2022-12-20T04:15:23;4.03;;;2.83;;
15126;SDS011;7664;52.008;4.748;2022-12-20T04:17:52;5.75;;;2.95;;
15126;SDS011;7664;52.008;4.748;2022-12-20T04:20:21;3.65;;;2.92;;
15126;SDS011;7664;52.008;4.748;2022-12-20T04:23:01;7.65;;;2.85;;
15126;SDS011;7664;52.008;4.748;2022-12-20T04:25:29;4.20;;;2.53;;
15126;SDS011;7664;52.008;4.748;2022-12-20T04:27:58;3.75;;;2.80;;
15126;SDS011;7664;52.008;4.748;2022-12-20T04:30:27;5.15;;;2.53;;
15126;SDS011;7664;52.008;4.748;2022-12-20T04:32:55;5.68;;;2.58;;
15126;SDS011;7664;52.008;4.748;2022-12-20T04:35:25;4.07;;;2.97;;
15126;SDS011;7664;52.008;4.748;2022-12-20T04:37:53;4.35;;;2.58;;
15126;SDS011;7664;52.008;4.748;2022-12-20T04:40:23;4.97;;;3.17;;
15126;SDS011;7664;52.008;4.748;2022-12-20T04:42:55;7.07;;;2.97;;
15126;SDS011;7664;52.008;4.748;2022-12-20T04:45:24;5.07;;;2.63;;
15126;SDS011;7664;52.008;4.748;2022-12-20T04:47:54;9.55;;;3.05;;
15126;SDS011;7664;52.008;4.748;2022-12-20T04:50:29;4.82;;;2.97;;
15126;SDS011;7664;52.008;4.748;2022-12-20T04:52:58;3.35;;;2.63;;
15126;SDS011;7664;52.008;4.748;2022-12-20T04:55:45;5.55;;;3.22;;
15126;SDS011;7664;52.008;4.748;2022-12-20T04:58:14;4.95;;;3.22;;
15126;SDS011;7664;52.008;4.748;2022-12-20T05:00:43;4.88;;;3.47;;
15126;SDS011;7664;52.008;4.748;2022-12-20T05:03:21;4.90;;;2.50;;
15126;SDS011;7664;52.008;4.748;2022-12-20T05:05:49;6.18;;;2.80;;
15126;SDS011;7664;52.008;4.748;2022-12-20T05:08:18;4.05;;;3.20;;
15126;SDS011;7664;52.008;4.748;2022-12-20T05:10:51;4.30;;;3.20;;
15126;SDS011;7664;52.008;4.748;2022-12-20T05:13:20;3.60;;;2.58;;
15126;SDS011;7664;52.008;4.748;2022-12-20T05:15:49;4.07;;;3.00;;
15126;SDS011;7664;52.008;4.748;2022-12-20T05:18:24;6.57;;;2.83;;
15126;SDS011;7664;52.008;4.748;2022-12-20T05:20:57;6.25;;;2.65;;
15126;SDS011;7664;52.008;4.748;2022-12-20T05:23:47;6.30;;;2.58;;
15126;SDS011;7664;52.008;4.748;2022-12-20T05:26:53;5.63;;;3.00;;
15126;SDS011;7664;52.008;4.748;2022-12-20T05:29:21;3.55;;;2.88;;
15126;SDS011;7664;52.008;4.748;2022-12-20T05:31:53;4.68;;;2.42;;
15126;SDS011;7664;52.008;4.748;2022-12-20T05:34:21;3.90;;;2.90;;
15126;SDS011;7664;52.008;4.748;2022-12-20T05:36:52;7.22;;;3.55;;
15126;SDS011;7664;52.008;4.748;2022-12-20T05:39:22;5.07;;;3.13;;
15126;SDS011;7664;52.008;4.748;2022-12-20T05:41:55;4.15;;;2.95;;
15126;SDS011;7664;52.008;4.748;2022-12-20T05:44:25;6.38;;;2.88;;
15126;SDS011;7664;52.008;4.748;2022-12-20T05:46:56;4.05;;;2.63;;
15126;SDS011;7664;52.008;4.748;2022-12-20T05:49:28;3.20;;;2.90;;
15126;SDS011;7664;52.008;4.748;2022-12-20T05:51:59;6.90;;;3.08;;
15126;SDS011;7664;52.008;4.748;2022-12-20T05:54:28;4.30;;;2.80;;
15126;SDS011;7664;52.008;4.748;2022-12-20T05:57:18;2.58;;;2.00;;
15126;SDS011;7664;52.008;4.748;2022-12-20T05:59:46;4.18;;;2.65;;
15126;SDS011;7664;52.008;4.748;2022-12-20T06:02:17;4.70;;;2.50;;
15126;SDS011;7664;52.008;4.748;2022-12-20T06:04:55;4.82;;;3.10;;
15126;SDS011;7664;52.008;4.748;2022-12-20T06:07:25;5.13;;;2.78;;
15126;SDS011;7664;52.008;4.748;2022-12-20T06:09:58;5.57;;;3.08;;
15126;SDS011;7664;52.008;4.748;2022-12-20T06:12:40;5.10;;;2.80;;
15126;SDS011;7664;52.008;4.748;2022-12-20T06:15:09;4.28;;;2.83;;
15126;SDS011;7664;52.008;4.748;2022-12-20T06:17:40;5.18;;;2.60;;
15126;SDS011;7664;52.008;4.748;2022-12-20T06:20:09;3.92;;;2.90;;
15126;SDS011;7664;52.008;4.748;2022-12-20T06:22:41;4.43;;;2.35;;
15126;SDS011;7664;52.008;4.748;2022-12-20T06:25:12;3.72;;;2.60;;
15126;SDS011;7664;52.008;4.748;2022-12-20T06:27:42;4.78;;;2.72;;
15126;SDS011;7664;52.008;4.748;2022-12-20T06:30:14;6.28;;;2.47;;
15126;SDS011;7664;52.008;4.748;2022-12-20T06:33:02;3.58;;;2.40;;
15126;SDS011;7664;52.008;4.748;2022-12-20T06:35:31;5.80;;;2.83;;
15126;SDS011;7664;52.008;4.748;2022-12-20T06:37:59;2.70;;;2.25;;
15126;SDS011;7664;52.008;4.748;2022-12-20T06:40:31;4.65;;;2.78;;
15126;SDS011;7664;52.008;4.748;2022-12-20T06:43:01;3.58;;;2.13;;
15126;SDS011;7664;52.008;4.748;2022-12-20T06:45:29;3.15;;;2.08;;
15126;SDS011;7664;52.008;4.748;2022-12-20T06:48:07;3.80;;;2.30;;
15126;SDS011;7664;52.008;4.748;2022-12-20T06:50:36;4.95;;;2.78;;
15126;SDS011;7664;52.008;4.748;2022-12-20T06:53:05;5.38;;;2.45;;
15126;SDS011;7664;52.008;4.748;2022-12-20T06:55:34;3.35;;;2.22;;
15126;SDS011;7664;52.008;4.748;2022-12-20T06:58:05;4.35;;;2.65;;
15126;SDS011;7664;52.008;4.748;2022-12-20T07:00:35;3.35;;;2.60;;
15126;SDS011;7664;52.008;4.748;2022-12-20T07:03:04;4.00;;;2.38;;
15126;SDS011;7664;52.008;4.748;2022-12-20T07:05:32;4.57;;;2.63;;
15126;SDS011;7664;52.008;4.748;2022-12-20T07:08:01;3.42;;;2.58;;
15126;SDS011;7664;52.008;4.748;2022-12-20T07:10:29;3.42;;;2.50;;
15126;SDS011;7664;52.008;4.748;2022-12-20T07:12:58;4.93;;;2.53;;
15126;SDS011;7664;52.008;4.748;2022-12-20T07:15:27;5.13;;;2.30;;
15126;SDS011;7664;52.008;4.748;2022-12-20T07:17:57;5.80;;;2.33;;
15126;SDS011;7664;52.008;4.748;2022-12-20T07:20:26;2.45;;;1.90;;
15126;SDS011;7664;52.008;4.748;2022-12-20T07:22:54;6.18;;;2.40;;
15126;SDS011;7664;52.008;4.748;2022-12-20T07:25:23;6.13;;;2.03;;
15126;SDS011;7664;52.008;4.748;2022-12-20T07:27:51;3.28;;;2.25;;
15126;SDS011;7664;52.008;4.748;2022-12-20T07:30:20;2.25;;;1.90;;
15126;SDS011;7664;52.008;4.748;2022-12-20T07:32:50;2.75;;;1.92;;
15126;SDS011;7664;52.008;4.748;2022-12-20T07:35:18;3.35;;;2.40;;
15126;SDS011;7664;52.008;4.748;2022-12-20T07:37:46;5.88;;;2.40;;
15126;SDS011;7664;52.008;4.748;2022-12-20T07:40:15;3.83;;;2.22;;
15126;SDS011;7664;52.008;4.748;2022-12-20T07:42:44;4.60;;;2.00;;
15126;SDS011;7664;52.008;4.748;2022-12-20T07:45:14;2.97;;;2.10;;
15126;SDS011;7664;52.008;4.748;2022-12-20T07:47:43;5.90;;;2.47;;
15126;SDS011;7664;52.008;4.748;2022-12-20T07:50:13;3.33;;;2.40;;
15126;SDS011;7664;52.008;4.748;2022-12-20T07:52:42;3.83;;;2.03;;
15126;SDS011;7664;52.008;4.748;2022-12-20T07:55:11;5.68;;;2.40;;
15126;SDS011;7664;52.008;4.748;2022-12-20T07:57:41;3.70;;;2.20;;
15126;SDS011;7664;52.008;4.748;2022-12-20T08:00:10;4.55;;;2.25;;
15126;SDS011;7664;52.008;4.748;2022-12-20T08:02:39;2.72;;;2.20;;
15126;SDS011;7664;52.008;4.748;2022-12-20T08:05:10;4.15;;;2.53;;
15126;SDS011;7664;52.008;4.748;2022-12-20T08:07:40;4.47;;;2.47;;
15126;SDS011;7664;52.008;4.748;2022-12-20T08:10:10;5.32;;;2.28;;
15126;SDS011;7664;52.008;4.748;2022-12-20T08:12:39;4.00;;;2.58;;
15126;SDS011;7664;52.008;4.748;2022-12-20T08:15:08;3.80;;;2.25;;
15126;SDS011;7664;52.008;4.748;2022-12-20T08:17:36;3.40;;;2.30;;
15126;SDS011;7664;52.008;4.748;2022-12-20T08:20:05;4.30;;;2.90;;
15126;SDS011;7664;52.008;4.748;2022-12-20T08:22:33;3.47;;;1.90;;
15126;SDS011;7664;52.008;4.748;2022-12-20T08:25:04;4.68;;;2.10;;
15126;SDS011;7664;52.008;4.748;2022-12-20T08:27:32;3.50;;;2.47;;
15126;SDS011;7664;52.008;4.748;2022-12-20T08:30:01;2.05;;;1.80;;
15126;SDS011;7664;52.008;4.748;2022-12-20T08:32:29;3.80;;;2.15;;
15126;SDS011;7664;52.008;4.748;2022-12-20T08:34:58;4.80;;;2.10;;
15126;SDS011;7664;52.008;4.748;2022-12-20T08:37:26;6.05;;;2.20;;
15126;SDS011;7664;52.008;4.748;2022-12-20T08:39:54;4.20;;;2.40;;
15126;SDS011;7664;52.008;4.748;2022-12-20T08:42:24;3.38;;;1.98;;
15126;SDS011;7664;52.008;4.748;2022-12-20T08:44:54;3.10;;;2.05;;
15126;SDS011;7664;52.008;4.748;2022-12-20T08:47:22;4.85;;;2.47;;
15126;SDS011;7664;52.008;4.748;2022-12-20T08:49:51;3.67;;;1.92;;
15126;SDS011;7664;52.008;4.748;2022-12-20T08:52:19;4.03;;;2.30;;
15126;SDS011;7664;52.008;4.748;2022-12-20T08:54:48;3.53;;;2.17;;
15126;SDS011;7664;52.008;4.748;2022-12-20T08:57:16;3.15;;;1.77;;
15126;SDS011;7664;52.008;4.748;2022-12-20T08:59:46;4.82;;;2.20;;
15126;SDS011;7664;52.008;4.748;2022-12-20T09:02:15;4.90;;;2.17;;
15126;SDS011;7664;52.008;4.748;2022-12-20T09:04:44;5.72;;;2.63;;
15126;SDS011;7664;52.008;4.748;2022-12-20T09:07:13;6.45;;;2.42;;
15126;SDS011;7664;52.008;4.748;2022-12-20T09:09:41;4.30;;;2.60;;
15126;SDS011;7664;52.008;4.748;2022-12-20T09:12:10;3.25;;;2.13;;
15126;SDS011;7664;52.008;4.748;2022-12-20T09:14:38;4.22;;;2.22;;
15126;SDS011;7664;52.008;4.748;2022-12-20T09:17:08;2.30;;;1.98;;
15126;SDS011;7664;52.008;4.748;2022-12-20T09:19:36;4.88;;;2.22;;
15126;SDS011;7664;52.008;4.748;2022-12-20T09:22:04;5.30;;;2.42;;
15126;SDS011;7664;52.008;4.748;2022-12-20T09:24:34;6.75;;;2.47;;
15126;SDS011;7664;52.008;4.748;2022-12-20T09:27:02;2.55;;;2.13;;
15126;SDS011;7664;52.008;4.748;2022-12-20T09:29:30;4.32;;;2.10;;
15126;SDS011;7664;52.008;4.748;2022-12-20T09:32:01;3.00;;;2.10;;
15126;SDS011;7664;52.008;4.748;2022-12-20T09:34:31;4.65;;;2.55;;
15126;SDS011;7664;52.008;4.748;2022-12-20T09:36:59;5.75;;;3.05;;
15126;SDS011;7664;52.008;4.748;2022-12-20T09:39:27;5.40;;;2.63;;
15126;SDS011;7664;52.008;4.748;2022-12-20T09:41:56;4.30;;;2.45;;
15126;SDS011;7664;52.008;4.748;2022-12-20T09:44:25;4.28;;;2.30;;
15126;SDS011;7664;52.008;4.748;2022-12-20T09:46:54;4.40;;;2.08;;
15126;SDS011;7664;52.008;4.748;2022-12-20T09:49:29;3.42;;;2.08;;
15126;SDS011;7664;52.008;4.748;2022-12-20T09:52:03;5.00;;;2.40;;
15126;SDS011;7664;52.008;4.748;2022-12-20T09:54:39;5.40;;;2.53;;
15126;SDS011;7664;52.008;4.748;2022-12-20T09:57:10;2.25;;;1.98;;
15126;SDS011;7664;52.008;4.748;2022-12-20T09:59:43;5.07;;;2.28;;
15126;SDS011;7664;52.008;4.748;2022-12-20T10:02:15;5.13;;;2.42;;
15126;SDS011;7664;52.008;4.748;2022-12-20T10:05:08;6.00;;;2.42;;
15126;SDS011;7664;52.008;4.748;2022-12-20T10:07:43;4.38;;;2.35;;
15126;SDS011;7664;52.008;4.748;2022-12-20T10:10:26;2.72;;;2.25;;
15126;SDS011;7664;52.008;4.748;2022-12-20T10:13:00;4.57;;;2.58;;
15126;SDS011;7664;52.008;4.748;2022-12-20T10:15:31;3.63;;;2.42;;
15126;SDS011;7664;52.008;4.748;2022-12-20T10:18:04;4.18;;;2.53;;
15126;SDS011;7664;52.008;4.748;2022-12-20T10:20:40;4.70;;;2.65;;
15126;SDS011;7664;52.008;4.748;2022-12-20T10:23:16;8.10;;;3.10;;
15126;SDS011;7664;52.008;4.748;2022-12-20T10:25:57;7.38;;;3.17;;
15126;SDS011;7664;52.008;4.748;2022-12-20T10:28:27;5.30;;;2.55;;
15126;SDS011;7664;52.008;4.748;2022-12-20T10:30:57;4.78;;;2.50;;
15126;SDS011;7664;52.008;4.748;2022-12-20T10:33:26;6.28;;;3.28;;
15126;SDS011;7664;52.008;4.748;2022-12-20T10:38:43;3.72;;;2.47;;
15126;SDS011;7664;52.008;4.748;2022-12-20T10:41:13;5.78;;;2.90;;
15126;SDS011;7664;52.008;4.748;2022-12-20T10:43:49;4.10;;;2.53;;
15126;SDS011;7664;52.008;4.748;2022-12-20T10:46:18;5.70;;;2.75;;
15126;SDS011;7664;52.008;4.748;2022-12-20T10:48:47;4.97;;;2.78;;
15126;SDS011;7664;52.008;4.748;2022-12-20T10:51:17;6.22;;;2.70;;
15126;SDS011;7664;52.008;4.748;2022-12-20T10:53:52;5.15;;;3.03;;
15126;SDS011;7664;52.008;4.748;2022-12-20T10:56:22;4.63;;;2.90;;
15126;SDS011;7664;52.008;4.748;2022-12-20T10:58:56;5.88;;;3.20;;
15126;SDS011;7664;52.008;4.748;2022-12-20T11:01:26;5.00;;;2.92;;
15126;SDS011;7664;52.008;4.748;2022-12-20T11:03:57;4.32;;;2.83;;
15126;SDS011;7664;52.008;4.748;2022-12-20T11:06:27;4.85;;;3.22;;
15126;SDS011;7664;52.008;4.748;2022-12-20T11:09:16;8.43;;;3.67;;
15126;SDS011;7664;52.008;4.748;2022-12-20T11:11:57;5.10;;;2.88;;
15126;SDS011;7664;52.008;4.748;2022-12-20T11:14:26;5.13;;;3.00;;
15126;SDS011;7664;52.008;4.748;2022-12-20T11:17:04;5.28;;;3.42;;
15126;SDS011;7664;52.008;4.748;2022-12-20T11:19:40;3.17;;;2.88;;
15126;SDS011;7664;52.008;4.748;2022-12-20T11:22:15;7.03;;;3.33;;
15126;SDS011;7664;52.008;4.748;2022-12-20T11:24:48;7.30;;;3.40;;
15126;SDS011;7664;52.008;4.748;2022-12-20T11:27:22;7.95;;;3.65;;
15126;SDS011;7664;52.008;4.748;2022-12-20T11:30:01;5.93;;;3.70;;
15126;SDS011;7664;52.008;4.748;2022-12-20T11:32:34;6.18;;;3.40;;
15126;SDS011;7664;52.008;4.748;2022-12-20T11:35:15;6.55;;;3.38;;
15126;SDS011;7664;52.008;4.748;2022-12-20T11:37:46;5.38;;;3.17;;
15126;SDS011;7664;52.008;4.748;2022-12-20T11:40:20;3.33;;;2.83;;
15126;SDS011;7664;52.008;4.748;2022-12-20T11:43:13;4.03;;;2.88;;
15126;SDS011;7664;52.008;4.748;2022-12-20T11:45:58;4.75;;;2.88;;
15126;SDS011;7664;52.008;4.748;2022-12-20T11:48:40;3.83;;;3.00;;
15126;SDS011;7664;52.008;4.748;2022-12-20T11:51:14;3.78;;;2.83;;
15126;SDS011;7664;52.008;4.748;2022-12-20T11:53:53;4.63;;;2.92;;
15126;SDS011;7664;52.008;4.748;2022-12-20T11:56:25;3.80;;;2.75;;
15126;SDS011;7664;52.008;4.748;2022-12-20T11:58:55;9.20;;;3.20;;
15126;SDS011;7664;52.008;4.748;2022-12-20T12:01:26;3.90;;;2.92;;
15126;SDS011;7664;52.008;4.748;2022-12-20T12:03:59;4.63;;;2.85;;
15126;SDS011;7664;52.008;4.748;2022-12-20T12:06:31;4.97;;;2.92;;
15126;SDS011;7664;52.008;4.748;2022-12-20T12:09:05;6.75;;;3.13;;
15126;SDS011;7664;52.008;4.748;2022-12-20T12:11:40;3.38;;;3.05;;
15126;SDS011;7664;52.008;4.748;2022-12-20T12:14:41;7.05;;;3.17;;
15126;SDS011;7664;52.008;4.748;2022-12-20T12:17:11;7.75;;;3.22;;
15126;SDS011;7664;52.008;4.748;2022-12-20T12:19:41;4.00;;;2.63;;
15126;SDS011;7664;52.008;4.748;2022-12-20T12:22:14;4.30;;;2.80;;
15126;SDS011;7664;52.008;4.748;2022-12-20T12:24:50;4.35;;;2.72;;
15126;SDS011;7664;52.008;4.748;2022-12-20T12:27:22;5.28;;;3.20;;
15126;SDS011;7664;52.008;4.748;2022-12-20T12:29:51;3.28;;;2.70;;
15126;SDS011;7664;52.008;4.748;2022-12-20T12:32:23;4.70;;;2.90;;
15126;SDS011;7664;52.008;4.748;2022-12-20T12:34:59;5.28;;;3.17;;
15126;SDS011;7664;52.008;4.748;2022-12-20T12:37:38;4.00;;;2.95;;
15126;SDS011;7664;52.008;4.748;2022-12-20T12:40:29;4.35;;;3.00;;
15126;SDS011;7664;52.008;4.748;2022-12-20T12:43:20;3.97;;;2.80;;
15126;SDS011;7664;52.008;4.748;2022-12-20T12:45:53;5.70;;;3.60;;
15126;SDS011;7664;52.008;4.748;2022-12-20T12:48:28;4.05;;;3.08;;
15126;SDS011;7664;52.008;4.748;2022-12-20T12:51:00;3.75;;;2.38;;
15126;SDS011;7664;52.008;4.748;2022-12-20T12:53:31;3.00;;;2.30;;
15126;SDS011;7664;52.008;4.748;2022-12-20T12:59:23;4.25;;;3.03;;
15126;SDS011;7664;52.008;4.748;2022-12-20T13:01:52;6.75;;;3.22;;
15126;SDS011;7664;52.008;4.748;2022-12-20T13:04:22;7.35;;;2.90;;
15126;SDS011;7664;52.008;4.748;2022-12-20T13:06:56;3.53;;;2.80;;
15126;SDS011;7664;52.008;4.748;2022-12-20T13:09:39;4.35;;;3.17;;
15126;SDS011;7664;52.008;4.748;2022-12-20T13:14:57;5.18;;;3.08;;
15126;SDS011;7664;52.008;4.748;2022-12-20T13:17:49;4.20;;;2.95;;
15126;SDS011;7664;52.008;4.748;2022-12-20T13:20:19;3.33;;;2.67;;
15126;SDS011;7664;52.008;4.748;2022-12-20T13:25:48;4.53;;;2.50;;
15126;SDS011;7664;52.008;4.748;2022-12-20T13:34:00;3.05;;;2.50;;
15126;SDS011;7664;52.008;4.748;2022-12-20T13:36:31;3.08;;;2.75;;
15126;SDS011;7664;52.008;4.748;2022-12-20T13:39:00;3.13;;;2.55;;
15126;SDS011;7664;52.008;4.748;2022-12-20T13:41:33;3.22;;;2.75;;
15126;SDS011;7664;52.008;4.748;2022-12-20T13:44:20;4.18;;;2.65;;
15126;SDS011;7664;52.008;4.748;2022-12-20T13:46:52;3.05;;;2.58;;
15126;SDS011;7664;52.008;4.748;2022-12-20T13:49:26;3.10;;;2.70;;
15126;SDS011;7664;52.008;4.748;2022-12-20T13:52:06;2.83;;;2.53;;
15126;SDS011;7664;52.008;4.748;2022-12-20T13:54:40;4.63;;;2.78;;
15126;SDS011;7664;52.008;4.748;2022-12-20T13:57:13;5.30;;;2.85;;
15126;SDS011;7664;52.008;4.748;2022-12-20T13:59:44;4.03;;;3.30;;
15126;SDS011;7664;52.008;4.748;2022-12-20T14:02:16;4.30;;;2.80;;
15126;SDS011;7664;52.008;4.748;2022-12-20T14:04:50;5.47;;;3.38;;
15126;SDS011;7664;52.008;4.748;2022-12-20T14:07:21;3.83;;;3.25;;
15126;SDS011;7664;52.008;4.748;2022-12-20T14:09:56;5.40;;;3.42;;
15126;SDS011;7664;52.008;4.748;2022-12-20T14:12:27;5.10;;;3.22;;
15126;SDS011;7664;52.008;4.748;2022-12-20T14:15:18;3.33;;;2.67;;
15126;SDS011;7664;52.008;4.748;2022-12-20T14:17:50;3.40;;;2.70;;
15126;SDS011;7664;52.008;4.748;2022-12-20T14:20:22;5.43;;;2.70;;
15126;SDS011;7664;52.008;4.748;2022-12-20T14:22:54;6.57;;;3.20;;
15126;SDS011;7664;52.008;4.748;2022-12-20T14:25:32;4.10;;;3.03;;
15126;SDS011;7664;52.008;4.748;2022-12-20T14:28:01;3.75;;;2.70;;
15126;SDS011;7664;52.008;4.748;2022-12-20T14:30:32;8.15;;;2.97;;
15126;SDS011;7664;52.008;4.748;2022-12-20T14:33:02;6.72;;;3.92;;
15126;SDS011;7664;52.008;4.748;2022-12-20T14:35:33;6.13;;;3.90;;
15126;SDS011;7664;52.008;4.748;2022-12-20T14:38:02;3.10;;;2.80;;
15126;SDS011;7664;52.008;4.748;2022-12-20T14:40:36;5.80;;;4.28;;
15126;SDS011;7664;52.008;4.748;2022-12-20T14:43:23;2.83;;;2.53;;
15126;SDS011;7664;52.008;4.748;2022-12-20T14:46:16;4.53;;;3.30;;
15126;SDS011;7664;52.008;4.748;2022-12-20T14:48:48;5.07;;;3.53;;
15126;SDS011;7664;52.008;4.748;2022-12-20T14:51:19;4.30;;;3.10;;
15126;SDS011;7664;52.008;4.748;2022-12-20T14:53:51;6.45;;;3.95;;
15126;SDS011;7664;52.008;4.748;2022-12-20T14:56:21;5.07;;;3.58;;
15126;SDS011;7664;52.008;4.748;2022-12-20T14:59:02;5.38;;;3.65;;
15126;SDS011;7664;52.008;4.748;2022-12-20T15:01:32;3.92;;;3.50;;
15126;SDS011;7664;52.008;4.748;2022-12-20T15:04:19;4.25;;;3.85;;
15126;SDS011;7664;52.008;4.748;2022-12-20T15:06:51;5.75;;;3.95;;
15126;SDS011;7664;52.008;4.748;2022-12-20T15:09:19;5.40;;;3.65;;
15126;SDS011;7664;52.008;4.748;2022-12-20T15:11:57;5.15;;;3.80;;
15126;SDS011;7664;52.008;4.748;2022-12-20T15:14:30;4.75;;;3.70;;
15126;SDS011;7664;52.008;4.748;2022-12-20T15:16:59;5.25;;;4.13;;
15126;SDS011;7664;52.008;4.748;2022-12-20T15:19:27;7.13;;;4.15;;
15126;SDS011;7664;52.008;4.748;2022-12-20T15:22:04;5.30;;;4.40;;
15126;SDS011;7664;52.008;4.748;2022-12-20T15:24:32;4.72;;;3.80;;
15126;SDS011;7664;52.008;4.748;2022-12-20T15:27:01;6.32;;;3.47;;
15126;SDS011;7664;52.008;4.748;2022-12-20T15:29:29;5.20;;;3.75;;
15126;SDS011;7664;52.008;4.748;2022-12-20T15:31:58;4.45;;;3.83;;
15126;SDS011;7664;52.008;4.748;2022-12-20T15:34:33;4.40;;;3.55;;
15126;SDS011;7664;52.008;4.748;2022-12-20T15:37:04;5.78;;;4.88;;
15126;SDS011;7664;52.008;4.748;2022-12-20T15:39:42;6.32;;;4.22;;
15126;SDS011;7664;52.008;4.748;2022-12-20T15:42:12;6.20;;;4.45;;
15126;SDS011;7664;52.008;4.748;2022-12-20T15:44:42;6.32;;;3.70;;
15126;SDS011;7664;52.008;4.748;2022-12-20T15:47:11;6.75;;;4.25;;
15126;SDS011;7664;52.008;4.748;2022-12-20T15:49:42;5.40;;;4.20;;